MDT,Max TemperatureF,Mean TemperatureF,Min TemperatureF,Max Dew PointF,MeanDew PointF,Min DewpointF,Max Humidity, Mean Humidity, Min Humidity, Max Sea Level PressureIn, Mean Sea Level PressureIn, Min Sea Level PressureIn, Max VisibilityMiles, Mean VisibilityMiles, Min VisibilityMiles, Max Wind SpeedMPH, Mean Wind SpeedMPH, Max Gust SpeedMPH,PrecipitationIn, CloudCover, Events, WindDirDegrees
2013-5-1,48,34,20,21,12,5,81,49,17,30.63,30.47,30.27,10,10,10,13,4,17,0.00,3,,183
2013-5-2,64,41,18,12,6,-2,62,35,8,30.68,30.48,30.25,10,10,10,21,8,24,0.00,0,,209
2013-5-3,61,51,40,38,22,10,79,49,19,30.22,30.14,30.06,10,10,9,22,9,28,0.02,6,Rain,6
2013-5-4,56,47,38,36,33,30,85,62,38,30.21,30.15,30.08,10,10,10,30,16,36,0.01,7,Rain,37
2013-5-5,66,49,32,33,29,25,82,53,24,30.12,30.01,29.90,10,10,9,17,7,23,0.00,1,,47
2013-5-6,72,54,35,33,28,24,70,45,19,29.97,29.88,29.78,10,10,7,35,6,44,0.00,2,Thunderstorm,175
2013-5-7,76,58,40,32,28,23,62,38,14,29.95,29.84,29.75,10,10,4,30,11,37,0.00,1,,200
2013-5-8,74,59,43,35,30,20,62,38,14,30.14,29.99,29.93,10,10,8,16,7,28,0.00,1,,27
2013-5-9,74,56,38,42,31,26,59,40,20,30.20,30.08,30.03,10,9,2,36,8,46,0.02,1,Rain,248
2013-5-10,75,57,38,37,31,22,76,46,15,30.23,30.19,30.11,10,10,10,18,8,25,0.00,1,,65
2013-5-11,77,59,41,34,29,25,62,39,15,30.26,30.19,30.09,10,10,6,25,7,38,0.00,1,,233
2013-5-12,82,64,46,35,33,29,60,38,15,30.11,30.02,29.90,10,9,2,28,11,32,0.00,0,,228
2013-5-13,87,68,49,36,29,24,46,29,11,29.95,29.84,29.69,10,9,2,43,17,55,0.00,0,,217
2013-5-14,80,63,46,39,28,14,71,40,8,30.00,29.83,29.72,10,10,8,30,12,43,0.00,0,,230
2013-5-15,73,58,42,33,26,19,46,30,14,29.99,29.87,29.73,10,10,10,22,6,36,0.00,2,,2
2013-5-16,67,56,44,45,39,32,86,60,34,29.92,29.81,29.71,10,9,2,37,5,45,0.12,6,Rain,3
2013-5-17,51,48,44,45,44,42,93,85,77,29.90,29.85,29.79,10,7,1,15,6,17,0.70,8,Rain,48
2013-5-18,58,51,44,43,41,36,92,70,47,30.04,29.93,29.86,10,10,6,20,4,23,0.05,7,Rain,256
2013-5-19,55,50,44,43,40,37,92,73,54,30.14,30.06,29.98,10,10,5,18,5,22,0.06,8,Rain,69
2013-5-20,48,46,45,43,42,41,93,84,74,30.20,30.16,30.12,10,10,10,6,3,,0.04,8,Rain,168
2013-5-21,72,55,37,,,,,,,,,,,,,38,7,47,T,,,
2013-5-22,66,51,35,41,34,25,92,58,24,29.92,29.71,29.55,10,9,5,33,13,40,0.29,4,Rain,206
2013-5-23,51,43,35,40,36,33,92,74,56,29.95,29.88,29.81,10,9,2,21,7,25,0.32,8,Rain-Thunderstorm,345
2013-5-24,62,48,34,36,31,26,92,61,29,30.02,29.92,29.83,10,10,3,25,10,36,0.07,5,Rain-Snow,200
2013-5-25,65,51,36,39,35,30,82,58,34,29.95,29.90,29.83,10,10,10,17,5,20,0.00,1,,311
2013-5-26,64,50,35,42,38,33,92,66,39,29.94,29.90,29.78,10,10,10,12,6,14,0.00,2,,196
2013-5-27,63,51,39,42,38,32,92,62,32,29.90,29.81,29.69,10,10,10,22,6,26,0.02,5,,231
2013-5-28,60,53,45,43,41,38,92,70,47,29.76,29.70,29.66,10,10,10,17,6,22,0.13,6,Rain,275
2013-5-29,64,53,41,44,41,34,96,65,34,29.82,29.70,29.56,10,9,2,23,6,26,0.52,6,Rain-Thunderstorm,170
2013-5-30,56,48,39,41,33,28,96,66,35,29.99,29.84,29.74,10,10,10,22,7,28,0.01,5,,265
2013-5-31,61,49,36,36,30,23,76,52,28,30.26,30.12,29.99,10,10,10,16,6,18,0.00,2,,138